JAS654 RJFK-RJOO
Flight info
| Callsign | JAS654 |
|---|---|
| Flight time | 0h 53m |
| Altitude | 33000 |
| Route | MIDAI M750 MADOG Y753 IZUMI |
| Aircraft | MD82/M-SDFGIRWY/S |
Departure
| Time | 2026-04-29 08:47 |
|---|---|
| Airport | Kagoshima Airport (RJFK) |
Arrival
| Time | 2026-04-29 09:40 |
|---|---|
| Airport | Osaka Itami International Airport (RJOO) |
| Time | Latitude | Longitude | Altitude | Speed | Heading |
|---|---|---|---|---|---|
| 2026-04-29 08:17 | 31.80210 | 130.71612 | 895 ft | 0 kts | 241° |
| 2026-04-29 08:38 | 31.80219 | 130.71631 | 895 ft | 3 kts | 241° |
| 2026-04-29 08:39 | 31.80230 | 130.71654 | 896 ft | 3 kts | 241° |
| 2026-04-29 08:39 | 31.80243 | 130.71681 | 896 ft | 4 kts | 241° |
| 2026-04-29 08:39 | 31.80257 | 130.71710 | 897 ft | 4 kts | 241° |
| 2026-04-29 08:39 | 31.80275 | 130.71735 | 897 ft | 4 kts | 200° |
| 2026-04-29 08:40 | 31.80302 | 130.71736 | 897 ft | 2 kts | 152° |
| 2026-04-29 08:40 | 31.80303 | 130.71736 | 897 ft | 0 kts | 151° |
| 2026-04-29 08:42 | 31.80298 | 130.71739 | 897 ft | 4 kts | 149° |
| 2026-04-29 08:42 | 31.80250 | 130.71773 | 896 ft | 10 kts | 149° |
| 2026-04-29 08:42 | 31.80173 | 130.71825 | 893 ft | 15 kts | 150° |
| 2026-04-29 08:42 | 31.80076 | 130.71891 | 891 ft | 17 kts | 150° |
| 2026-04-29 08:43 | 31.79968 | 130.71965 | 887 ft | 20 kts | 150° |
| 2026-04-29 08:43 | 31.79839 | 130.72052 | 881 ft | 23 kts | 150° |
| 2026-04-29 08:43 | 31.79695 | 130.72148 | 877 ft | 26 kts | 150° |
| 2026-04-29 08:43 | 31.79531 | 130.72259 | 875 ft | 28 kts | 150° |
| 2026-04-29 08:44 | 31.79362 | 130.72374 | 873 ft | 28 kts | 150° |
| 2026-04-29 08:44 | 31.79212 | 130.72476 | 873 ft | 23 kts | 149° |
| 2026-04-29 08:44 | 31.79123 | 130.72597 | 868 ft | 17 kts | 77° |
| 2026-04-29 08:44 | 31.79167 | 130.72682 | 867 ft | 12 kts | 39° |
| 2026-04-29 08:45 | 31.79221 | 130.72687 | 868 ft | 6 kts | 335° |
| 2026-04-29 08:45 | 31.79224 | 130.72685 | 868 ft | 0 kts | 332° |
| 2026-04-29 08:46 | 31.79242 | 130.72675 | 869 ft | 6 kts | 332° |
| 2026-04-29 08:46 | 31.79383 | 130.72579 | 874 ft | 47 kts | 330° |
| 2026-04-29 08:46 | 31.79836 | 130.72276 | 881 ft | 104 kts | 330° |
| 2026-04-29 08:47 | 31.80616 | 130.71747 | 901 ft | 153 kts | 329° |
| 2026-04-29 08:47 | 31.81615 | 130.71081 | 1284 ft | 169 kts | 329° |
| 2026-04-29 08:47 | 31.82636 | 130.70406 | 1966 ft | 168 kts | 330° |
| 2026-04-29 08:47 | 31.83771 | 130.69956 | 2330 ft | 180 kts | 354° |
| 2026-04-29 08:48 | 31.85041 | 130.70001 | 2777 ft | 190 kts | 9° |
| 2026-04-29 08:48 | 31.86355 | 130.70530 | 3071 ft | 209 kts | 31° |
| 2026-04-29 08:48 | 31.87463 | 130.71700 | 3467 ft | 222 kts | 55° |
| 2026-04-29 08:48 | 31.88156 | 130.73367 | 3914 ft | 234 kts | 76° |
| 2026-04-29 08:49 | 31.88321 | 130.75307 | 4340 ft | 247 kts | 95° |
| 2026-04-29 08:49 | 31.87912 | 130.77337 | 4713 ft | 263 kts | 116° |
| 2026-04-29 08:49 | 31.86819 | 130.79044 | 5454 ft | 264 kts | 140° |
| 2026-04-29 08:49 | 31.85372 | 130.80449 | 5998 ft | 275 kts | 143° |
| 2026-04-29 08:50 | 31.83825 | 130.81824 | 6615 ft | 279 kts | 147° |
| 2026-04-29 08:50 | 31.82165 | 130.83020 | 7227 ft | 285 kts | 153° |
| 2026-04-29 08:50 | 31.80393 | 130.84140 | 7742 ft | 290 kts | 155° |
| 2026-04-29 08:50 | 31.78612 | 130.85244 | 8506 ft | 288 kts | 155° |
| 2026-04-29 08:51 | 31.76855 | 130.86382 | 9184 ft | 291 kts | 155° |
| 2026-04-29 08:51 | 31.75059 | 130.87582 | 9586 ft | 302 kts | 154° |
| 2026-04-29 08:51 | 31.73251 | 130.88845 | 10118 ft | 301 kts | 154° |
| 2026-04-29 08:51 | 31.71430 | 130.90167 | 10407 ft | 311 kts | 153° |
| 2026-04-29 08:52 | 31.69552 | 130.91520 | 10441 ft | 327 kts | 154° |
| 2026-04-29 08:52 | 31.67605 | 130.92917 | 10815 ft | 331 kts | 154° |
| 2026-04-29 08:52 | 31.65619 | 130.94343 | 11158 ft | 337 kts | 154° |
| 2026-04-29 08:52 | 31.63627 | 130.95841 | 11437 ft | 347 kts | 147° |
| 2026-04-29 08:53 | 31.61961 | 130.97956 | 11708 ft | 363 kts | 127° |
| 2026-04-29 08:53 | 31.60878 | 131.00684 | 11894 ft | 377 kts | 108° |
| 2026-04-29 08:53 | 31.60503 | 131.03771 | 12045 ft | 390 kts | 91° |
| 2026-04-29 08:53 | 31.60656 | 131.06977 | 12329 ft | 398 kts | 85° |
| 2026-04-29 08:54 | 31.60922 | 131.10258 | 12670 ft | 407 kts | 86° |
| 2026-04-29 08:54 | 31.61106 | 131.13583 | 13205 ft | 410 kts | 89° |
| 2026-04-29 08:54 | 31.61173 | 131.16940 | 13790 ft | 413 kts | 91° |
| 2026-04-29 08:54 | 31.61150 | 131.20311 | 14253 ft | 416 kts | 92° |
| 2026-04-29 08:55 | 31.61072 | 131.23709 | 14796 ft | 417 kts | 94° |
| 2026-04-29 08:55 | 31.60968 | 131.27120 | 15330 ft | 418 kts | 94° |
| 2026-04-29 08:55 | 31.60852 | 131.30534 | 15793 ft | 421 kts | 94° |
| 2026-04-29 08:55 | 31.60737 | 131.33987 | 16261 ft | 425 kts | 92° |
| 2026-04-29 08:56 | 31.61036 | 131.37449 | 16701 ft | 430 kts | 73° |
| 2026-04-29 08:56 | 31.62203 | 131.40666 | 17178 ft | 430 kts | 59° |
| 2026-04-29 08:56 | 31.63743 | 131.43687 | 17675 ft | 432 kts | 56° |
| 2026-04-29 08:56 | 31.65356 | 131.46675 | 18103 ft | 436 kts | 55° |
| 2026-04-29 08:57 | 31.66996 | 131.49689 | 18547 ft | 438 kts | 55° |
| 2026-04-29 08:57 | 31.68633 | 131.52721 | 18950 ft | 440 kts | 56° |
| 2026-04-29 08:57 | 31.70251 | 131.55777 | 19335 ft | 443 kts | 56° |
| 2026-04-29 08:57 | 31.71861 | 131.58886 | 19706 ft | 447 kts | 57° |
| 2026-04-29 08:58 | 31.73465 | 131.62034 | 20061 ft | 451 kts | 57° |
| 2026-04-29 08:58 | 31.75065 | 131.65204 | 20442 ft | 453 kts | 57° |
| 2026-04-29 08:58 | 31.76676 | 131.68402 | 20842 ft | 455 kts | 57° |
| 2026-04-29 08:58 | 31.78291 | 131.71604 | 21219 ft | 458 kts | 57° |
| 2026-04-29 08:59 | 31.79927 | 131.74837 | 21593 ft | 461 kts | 57° |
| 2026-04-29 08:59 | 31.81578 | 131.78094 | 21945 ft | 465 kts | 57° |
| 2026-04-29 08:59 | 31.83236 | 131.81364 | 22322 ft | 468 kts | 57° |
| 2026-04-29 08:59 | 31.84899 | 131.84661 | 22724 ft | 470 kts | 57° |
| 2026-04-29 09:00 | 31.86569 | 131.87980 | 23067 ft | 473 kts | 57° |
| 2026-04-29 09:00 | 31.88246 | 131.91314 | 23398 ft | 476 kts | 57° |
| 2026-04-29 09:00 | 31.89943 | 131.94684 | 23737 ft | 479 kts | 57° |
| 2026-04-29 09:00 | 31.91626 | 131.98027 | 24040 ft | 482 kts | 57° |
| 2026-04-29 09:01 | 31.93356 | 132.01462 | 24391 ft | 483 kts | 57° |
| 2026-04-29 09:01 | 31.95075 | 132.04873 | 24690 ft | 485 kts | 57° |
| 2026-04-29 09:01 | 31.96781 | 132.08258 | 24976 ft | 488 kts | 57° |
| 2026-04-29 09:01 | 31.98538 | 132.11744 | 25254 ft | 491 kts | 57° |
| 2026-04-29 09:02 | 32.00264 | 132.15172 | 25544 ft | 494 kts | 57° |
| 2026-04-29 09:02 | 32.02041 | 132.18700 | 25856 ft | 496 kts | 57° |
| 2026-04-29 09:02 | 32.03782 | 132.22159 | 26195 ft | 498 kts | 57° |
| 2026-04-29 09:02 | 32.05546 | 132.25684 | 26501 ft | 500 kts | 57° |
| 2026-04-29 09:03 | 32.07306 | 132.29216 | 26788 ft | 502 kts | 57° |
| 2026-04-29 09:03 | 32.09087 | 132.32779 | 27052 ft | 505 kts | 57° |
| 2026-04-29 09:03 | 32.10880 | 132.36357 | 27327 ft | 507 kts | 57° |
| 2026-04-29 09:03 | 32.12682 | 132.39938 | 27603 ft | 510 kts | 57° |
| 2026-04-29 09:04 | 32.14523 | 132.43530 | 27880 ft | 512 kts | 56° |
| 2026-04-29 09:04 | 32.16398 | 132.47106 | 28125 ft | 515 kts | 55° |
| 2026-04-29 09:04 | 32.18306 | 132.50703 | 28402 ft | 517 kts | 55° |
| 2026-04-29 09:04 | 32.20223 | 132.54308 | 28734 ft | 518 kts | 55° |
| 2026-04-29 09:05 | 32.22130 | 132.57903 | 29117 ft | 517 kts | 55° |
| 2026-04-29 09:05 | 32.24034 | 132.61511 | 29530 ft | 516 kts | 55° |
| 2026-04-29 09:05 | 32.25926 | 132.65108 | 29940 ft | 515 kts | 55° |
| 2026-04-29 09:05 | 32.27816 | 132.68709 | 30289 ft | 515 kts | 55° |
| 2026-04-29 09:06 | 32.29698 | 132.72297 | 30574 ft | 515 kts | 55° |
| 2026-04-29 09:06 | 32.31587 | 132.75897 | 30858 ft | 515 kts | 55° |
| 2026-04-29 09:06 | 32.33476 | 132.79498 | 31147 ft | 515 kts | 55° |
| 2026-04-29 09:06 | 32.35357 | 132.83085 | 31441 ft | 514 kts | 55° |
| 2026-04-29 09:07 | 32.37234 | 132.86682 | 31762 ft | 513 kts | 56° |
| 2026-04-29 09:07 | 32.39095 | 132.90263 | 32087 ft | 511 kts | 56° |
| 2026-04-29 09:07 | 32.40956 | 132.93848 | 32381 ft | 510 kts | 56° |
| 2026-04-29 09:07 | 32.42816 | 132.97431 | 32647 ft | 510 kts | 56° |
| 2026-04-29 09:08 | 32.44673 | 133.01003 | 32835 ft | 512 kts | 56° |
| 2026-04-29 09:08 | 32.48423 | 133.08211 | 32957 ft | 514 kts | 56° |
| 2026-04-29 09:09 | 32.52144 | 133.15378 | 33019 ft | 507 kts | 55° |
| 2026-04-29 09:09 | 32.55825 | 133.22471 | 33032 ft | 502 kts | 55° |
| 2026-04-29 09:10 | 32.59469 | 133.29523 | 33038 ft | 502 kts | 55° |
| 2026-04-29 09:10 | 32.63122 | 133.36606 | 33036 ft | 505 kts | 55° |
| 2026-04-29 09:11 | 32.66789 | 133.43733 | 33038 ft | 507 kts | 56° |
| 2026-04-29 09:11 | 32.69766 | 133.49735 | 33037 ft | 507 kts | 56° |
| 2026-04-29 09:12 | 32.72775 | 133.55845 | 33035 ft | 505 kts | 56° |
| 2026-04-29 09:12 | 32.76340 | 133.63023 | 33035 ft | 503 kts | 56° |
| 2026-04-29 09:13 | 32.79907 | 133.70165 | 33042 ft | 503 kts | 56° |
| 2026-04-29 09:13 | 32.83478 | 133.77329 | 33045 ft | 505 kts | 56° |
| 2026-04-29 09:14 | 32.87041 | 133.84539 | 33050 ft | 506 kts | 56° |
| 2026-04-29 09:14 | 32.90608 | 133.91772 | 33056 ft | 508 kts | 56° |
| 2026-04-29 09:15 | 32.94186 | 133.99024 | 33043 ft | 507 kts | 56° |
| 2026-04-29 09:15 | 32.97754 | 134.06257 | 33054 ft | 506 kts | 56° |
| 2026-04-29 09:16 | 33.01318 | 134.13486 | 33049 ft | 506 kts | 56° |
| 2026-04-29 09:16 | 33.04884 | 134.20730 | 33051 ft | 507 kts | 56° |
| 2026-04-29 09:16 | 33.06892 | 134.24148 | 33054 ft | 498 kts | 41° |
| 2026-04-29 09:17 | 33.09369 | 134.27000 | 33056 ft | 492 kts | 34° |
| 2026-04-29 09:17 | 33.14641 | 134.32203 | 33060 ft | 492 kts | 32° |
| 2026-04-29 09:18 | 33.19902 | 134.37370 | 33041 ft | 494 kts | 33° |
| 2026-04-29 09:18 | 33.22539 | 134.40022 | 32702 ft | 498 kts | 34° |
| 2026-04-29 09:18 | 33.25173 | 134.42713 | 32288 ft | 496 kts | 34° |
| 2026-04-29 09:18 | 33.27762 | 134.45386 | 31871 ft | 490 kts | 34° |
| 2026-04-29 09:19 | 33.30324 | 134.48042 | 31447 ft | 484 kts | 34° |
| 2026-04-29 09:19 | 33.32853 | 134.50657 | 31024 ft | 478 kts | 34° |
| 2026-04-29 09:19 | 33.35365 | 134.53245 | 30605 ft | 474 kts | 34° |
| 2026-04-29 09:19 | 33.37856 | 134.55805 | 30207 ft | 472 kts | 34° |
| 2026-04-29 09:20 | 33.40342 | 134.58357 | 29728 ft | 470 kts | 34° |
| 2026-04-29 09:20 | 33.42815 | 134.60903 | 29251 ft | 467 kts | 34° |
| 2026-04-29 09:20 | 33.45261 | 134.63429 | 28777 ft | 463 kts | 34° |
| 2026-04-29 09:20 | 33.47690 | 134.65938 | 28316 ft | 459 kts | 34° |
| 2026-04-29 09:21 | 33.50093 | 134.68419 | 27862 ft | 455 kts | 34° |
| 2026-04-29 09:21 | 33.52487 | 134.70890 | 27414 ft | 452 kts | 34° |
| 2026-04-29 09:21 | 33.54864 | 134.73342 | 26973 ft | 449 kts | 34° |
| 2026-04-29 09:21 | 33.57222 | 134.75775 | 26543 ft | 446 kts | 34° |
| 2026-04-29 09:22 | 33.59583 | 134.78148 | 26105 ft | 439 kts | 30° |
| 2026-04-29 09:22 | 33.62090 | 134.80195 | 25697 ft | 432 kts | 25° |
| 2026-04-29 09:22 | 33.64643 | 134.82052 | 25286 ft | 428 kts | 23° |
| 2026-04-29 09:22 | 33.67207 | 134.83861 | 24877 ft | 426 kts | 23° |
| 2026-04-29 09:23 | 33.69754 | 134.85658 | 24477 ft | 423 kts | 23° |
| 2026-04-29 09:23 | 33.72273 | 134.87455 | 24079 ft | 421 kts | 24° |
| 2026-04-29 09:23 | 33.74782 | 134.89270 | 23654 ft | 419 kts | 24° |
| 2026-04-29 09:23 | 33.77255 | 134.91083 | 23202 ft | 416 kts | 24° |
| 2026-04-29 09:24 | 33.79713 | 134.92901 | 22764 ft | 413 kts | 25° |
| 2026-04-29 09:24 | 33.82155 | 134.94716 | 22342 ft | 411 kts | 25° |
| 2026-04-29 09:24 | 33.84579 | 134.96515 | 21901 ft | 409 kts | 25° |
| 2026-04-29 09:24 | 33.86986 | 134.98306 | 21485 ft | 407 kts | 25° |
| 2026-04-29 09:25 | 33.89384 | 135.00095 | 21072 ft | 405 kts | 25° |
| 2026-04-29 09:25 | 33.91769 | 135.01873 | 20665 ft | 402 kts | 25° |
| 2026-04-29 09:25 | 33.94148 | 135.03645 | 20262 ft | 400 kts | 25° |
| 2026-04-29 09:25 | 33.96516 | 135.05406 | 19854 ft | 398 kts | 25° |
| 2026-04-29 09:26 | 33.98861 | 135.07149 | 19468 ft | 396 kts | 25° |
| 2026-04-29 09:26 | 34.01203 | 135.08890 | 19079 ft | 394 kts | 25° |
| 2026-04-29 09:26 | 34.03557 | 135.10640 | 18686 ft | 392 kts | 25° |
| 2026-04-29 09:26 | 34.05849 | 135.12345 | 18310 ft | 390 kts | 25° |
| 2026-04-29 09:27 | 34.08182 | 135.14080 | 17786 ft | 389 kts | 25° |
| 2026-04-29 09:27 | 34.10450 | 135.15768 | 17281 ft | 386 kts | 25° |
| 2026-04-29 09:27 | 34.12725 | 135.17462 | 16777 ft | 383 kts | 25° |
| 2026-04-29 09:27 | 34.14982 | 135.19147 | 16279 ft | 380 kts | 25° |
| 2026-04-29 09:28 | 34.17216 | 135.20818 | 15785 ft | 376 kts | 25° |
| 2026-04-29 09:28 | 34.19455 | 135.22494 | 15355 ft | 371 kts | 26° |
| 2026-04-29 09:28 | 34.21610 | 135.24107 | 14940 ft | 367 kts | 26° |
| 2026-04-29 09:28 | 34.23744 | 135.25762 | 14518 ft | 363 kts | 28° |
| 2026-04-29 09:29 | 34.25825 | 135.27453 | 14100 ft | 360 kts | 29° |
| 2026-04-29 09:29 | 34.29908 | 135.30847 | 13165 ft | 353 kts | 29° |
| 2026-04-29 09:29 | 34.31923 | 135.32526 | 12695 ft | 350 kts | 29° |
| 2026-04-29 09:30 | 34.33919 | 135.34181 | 12221 ft | 347 kts | 28° |
| 2026-04-29 09:30 | 34.35914 | 135.35824 | 11749 ft | 345 kts | 28° |
| 2026-04-29 09:30 | 34.37549 | 135.37175 | 11381 ft | 343 kts | 28° |
| 2026-04-29 09:30 | 34.39362 | 135.38663 | 10955 ft | 340 kts | 28° |
| 2026-04-29 09:31 | 34.41316 | 135.40259 | 10500 ft | 337 kts | 28° |
| 2026-04-29 09:31 | 34.43248 | 135.41845 | 10043 ft | 335 kts | 31° |
| 2026-04-29 09:31 | 34.44882 | 135.43871 | 9532 ft | 340 kts | 52° |
| 2026-04-29 09:31 | 34.46085 | 135.46324 | 9060 ft | 338 kts | 58° |
| 2026-04-29 09:32 | 34.47192 | 135.48828 | 8549 ft | 334 kts | 59° |
| 2026-04-29 09:32 | 34.48256 | 135.51269 | 8102 ft | 320 kts | 59° |
| 2026-04-29 09:32 | 34.49267 | 135.53602 | 7622 ft | 306 kts | 59° |
| 2026-04-29 09:32 | 34.50237 | 135.55839 | 7148 ft | 293 kts | 58° |
| 2026-04-29 09:33 | 34.51181 | 135.57983 | 6691 ft | 283 kts | 58° |
| 2026-04-29 09:33 | 34.52104 | 135.60043 | 6228 ft | 274 kts | 58° |
| 2026-04-29 09:33 | 34.53008 | 135.62022 | 5737 ft | 266 kts | 58° |
| 2026-04-29 09:33 | 34.53948 | 135.63932 | 5262 ft | 258 kts | 49° |
| 2026-04-29 09:34 | 34.55322 | 135.65198 | 4794 ft | 245 kts | 16° |
| 2026-04-29 09:34 | 34.56954 | 135.65510 | 4417 ft | 234 kts | 360° |
| 2026-04-29 09:34 | 34.58556 | 135.65571 | 4020 ft | 226 kts | 359° |
| 2026-04-29 09:34 | 34.60078 | 135.65521 | 3800 ft | 213 kts | 345° |
| 2026-04-29 09:35 | 34.61270 | 135.64635 | 3773 ft | 194 kts | 307° |
| 2026-04-29 09:35 | 34.62109 | 135.63433 | 3925 ft | 192 kts | 313° |
| 2026-04-29 09:35 | 34.63142 | 135.62222 | 3875 ft | 218 kts | 315° |
| 2026-04-29 09:35 | 34.64227 | 135.60928 | 3666 ft | 230 kts | 314° |
| 2026-04-29 09:36 | 34.65356 | 135.59545 | 3318 ft | 217 kts | 315° |
| 2026-04-29 09:36 | 34.66376 | 135.58313 | 2966 ft | 196 kts | 316° |
| 2026-04-29 09:36 | 34.67294 | 135.57199 | 2709 ft | 178 kts | 317° |
| 2026-04-29 09:36 | 34.68118 | 135.56207 | 2524 ft | 157 kts | 318° |
| 2026-04-29 09:37 | 34.68864 | 135.55309 | 2323 ft | 145 kts | 318° |
| 2026-04-29 09:37 | 34.69556 | 135.54469 | 2117 ft | 138 kts | 318° |
| 2026-04-29 09:37 | 34.70227 | 135.53667 | 1946 ft | 134 kts | 318° |
| 2026-04-29 09:37 | 34.70885 | 135.52870 | 1792 ft | 136 kts | 318° |
| 2026-04-29 09:38 | 34.71556 | 135.52046 | 1652 ft | 140 kts | 318° |
| 2026-04-29 09:38 | 34.72252 | 135.51221 | 1564 ft | 142 kts | 318° |
| 2026-04-29 09:38 | 34.72951 | 135.50317 | 1429 ft | 150 kts | 319° |
| 2026-04-29 09:38 | 34.73697 | 135.49421 | 1227 ft | 150 kts | 319° |
| 2026-04-29 09:39 | 34.74434 | 135.48532 | 925 ft | 149 kts | 319° |
| 2026-04-29 09:39 | 34.75180 | 135.47649 | 690 ft | 149 kts | 319° |
| 2026-04-29 09:39 | 34.75907 | 135.46770 | 470 ft | 147 kts | 318° |
| 2026-04-29 09:39 | 34.76635 | 135.45887 | 244 ft | 148 kts | 318° |
| 2026-04-29 09:40 | 34.77363 | 135.45013 | 63 ft | 141 kts | 315° |
| 2026-04-29 09:40 | 34.78002 | 135.44244 | 49 ft | 117 kts | 314° |
| 2026-04-29 09:40 | 34.78438 | 135.43704 | 49 ft | 56 kts | 314° |
| 2026-04-29 09:40 | 34.78721 | 135.43491 | 49 ft | 23 kts | 335° |
| 2026-04-29 09:41 | 34.78801 | 135.43446 | 46 ft | 12 kts | 337° |
| 2026-04-29 09:41 | 34.78885 | 135.43420 | 49 ft | 13 kts | 358° |
| 2026-04-29 09:41 | 34.78972 | 135.43437 | 50 ft | 12 kts | 19° |
| 2026-04-29 09:41 | 34.79043 | 135.43481 | 51 ft | 11 kts | 42° |
| 2026-04-29 09:42 | 34.79066 | 135.43551 | 50 ft | 0 kts | 87° |
| 2026-04-29 09:42 | 34.79066 | 135.43577 | 49 ft | 5 kts | 94° |
| 2026-04-29 09:42 | 34.79066 | 135.43580 | 49 ft | 0 kts | 95° |
| 2026-04-29 09:43 | 34.79065 | 135.43588 | 49 ft | 2 kts | 96° |
| 2026-04-29 09:43 | 34.79065 | 135.43590 | 49 ft | 0 kts | 96° |
| 2026-04-29 09:44 | 34.79065 | 135.43593 | 49 ft | 2 kts | 92° |
| 2026-04-29 09:44 | 34.79073 | 135.43603 | 46 ft | 3 kts | 16° |
| 2026-04-29 09:44 | 34.79116 | 135.43592 | 49 ft | 8 kts | 348° |
| 2026-04-29 09:44 | 34.79157 | 135.43583 | 48 ft | 5 kts | 351° |
| 2026-04-29 09:45 | 34.79196 | 135.43578 | 49 ft | 6 kts | 352° |
| 2026-04-29 09:45 | 34.79240 | 135.43564 | 48 ft | 7 kts | 354° |
| 2026-04-29 09:45 | 34.79283 | 135.43583 | 49 ft | 7 kts | 43° |
| 2026-04-29 09:45 | 34.79308 | 135.43632 | 46 ft | 2 kts | 62° |
| 2026-04-29 09:46 | 34.79320 | 135.43659 | 47 ft | 5 kts | 65° |
| 2026-04-29 09:46 | 34.79319 | 135.43678 | 49 ft | 2 kts | 109° |
| 2026-04-29 09:46 | 34.79302 | 135.43695 | 49 ft | 4 kts | 155° |
| 2026-04-29 09:46 | 34.79277 | 135.43706 | 49 ft | 3 kts | 160° |
| 2026-04-29 09:47 | 34.79276 | 135.43706 | 49 ft | 0 kts | 160° |